KMGM/MGM METAR and TAF weather

Enter ICAO airport designator
Station Type Date Time Source
KMGM METAR 2020/01/20 18:53 UTC NOAA

KMGM 201853Z 32012G19KT 10SM CLR 07/M07 A3040 RMK AO2 SLP295 T00721067 $


Station Type Date Time Source
KMGM Decoded METAR 2020/01/20 18:53 UTC NOAA

MONTGOMERY DANNELLY FIELD, AL, United States (KMGM) 32-18N 86-24W 63M
Jan 20, 2020 - 01:53 PM EST / 2020.01.20 1853 UTC
Wind: from the NW (320 degrees) at 14 MPH (12 KT) gusting to 22 MPH (19 KT):0
Visibility: 10 mile(s):0
Sky conditions: clear
Temperature: 45.0 F (7.2 C)
Dew Point: 19.9 F (-6.7 C)
Relative Humidity: 36%
Pressure (altimeter): 30.4 in. Hg (1029 hPa)
ob: KMGM 201853Z 32012G19KT 10SM CLR 07/M07 A3040 RMK AO2 SLP295 T00721067
cycle: 19

Station Type Date Time Source
KMGM TAF 2020/01/20 18:33 UTC NOAA

TAF KMGM 201731Z 2018/2118 33007KT P6SM SKC
FM210400 33004KT P6SM SKC
FM211000 VRB04KT P6SM SCT150

Example: see airport list